KMKL/MKL METAR and TAF weather

Enter ICAO airport designator
Station Type Date Time Source
KMKL METAR 2018/12/13 08:53 UTC NOAA

KMKL 130853Z AUTO 18007KT 10SM BKN065 OVC075 10/06 A3003 RMK AO2 SLP170 T01000056 55003


Station Type Date Time Source
KMKL Decoded METAR 2018/12/13 08:53 UTC NOAA

JACKSON MCKELLAR-SIPES RGNL, TN, United States (KMKL) 35-36N 088-55W 128M
Dec 13, 2018 - 03:53 AM EST / 2018.12.13 0853 UTC
Wind: from the S (180 degrees) at 8 MPH (7 KT):0
Visibility: 10 mile(s):0
Sky conditions: overcast
Temperature: 50.0 F (10.0 C)
Dew Point: 42.1 F (5.6 C)
Relative Humidity: 74%
Pressure (altimeter): 30.03 in. Hg (1016 hPa)
Pressure tendency: 0.01 inches (0.3 hPa) lower than three hours ago
ob: KMKL 130853Z AUTO 18007KT 10SM BKN065 OVC075 10/06 A3003 RMK AO2 SLP170 T01000056 55003
cycle: 9

Station Type Date Time Source
KMKL TAF 2018/12/13 08:10 UTC NOAA

TAF
AMD KMKL 130808Z 1308/1406 16004KT P6SM VCSH OVC050
TEMPO 1310/1313 5SM -SHRA BR BKN035
FM131300 15009KT 6SM -SHRA BR BKN030 OVC050
FM132200 14008KT 6SM -SHRA BKN025
FM140200 13008KT 5SM -SHRA BR OVC015
FM140500 11008KT 4SM -SHRA BR OVC009


Example: see airport list